Flight Track Log - Related Links

Times and Time Zones

All times are in EDT time to prevent confusion due to time zone crossing. See the EJM198 flight status page for this flight to view local times or setup timezone preferences in your user account.

Time Position Orientation Groundspeed Altitude Reporting Facility
EDT Latitude Longitude Course Direction KTS MPH feet Rate Location/Type
Sat 07:11:31 AM 41.1000 -73.7833 236° Southwest 189 217 2,700  Level New York TRACON
Sat 07:12:31 AM 41.0667 -73.8500 236° Southwest 247 284 5,400 2,900 Climbing New York TRACON
Sat 07:13:31 AM 41.0167 -73.9167 225° Southwest 263 303 8,500 2,789 Climbing New York TRACON
Sat 07:14:25 AM 40.9667 -73.9833 225° Southwest 270 311 10,700 2,350 Climbing New York TRACON
Sat 07:15:31 AM 40.9500 -74.0833 258° West 268 308 13,200 1,324 Climbing New York TRACON
Sat 07:17:49 AM 40.9161 -74.3325 260° West 332 382 15,200 939 Climbing New York Center
Sat 07:18:49 AM 40.8981 -74.4525 259° West 369 425 16,300 1,303 Climbing New York Center
Sat 07:24:48 AM 40.6892 -75.2653 251° West 362 417 24,300 1,342 Climbing FlightAware ADS-B (KPHL)
Sat 07:25:18 AM 40.6723 -75.3269 250° West 358 412 25,000 1,182 Climbing FlightAware ADS-B (KPHL)
Sat 07:25:54 AM 40.6544 -75.3927 250° West 361 415 25,600 960 Climbing FlightAware ADS-B (KPHL)
Sat 07:26:33 AM 40.6305 -75.4802 250° West 366 421 26,200 1,373 Climbing FlightAware ADS-B (KPHL)
Sat 07:27:17 AM 40.6040 -75.5736 250° West 357 411 27,500 1,553 Climbing FlightAware ADS-B (KPHL)
Sat 07:27:58 AM 40.5808 -75.6545 249° West 359 413 28,400 1,263 Climbing FlightAware ADS-B (KPHL)
Sat 07:28:33 AM 40.5602 -75.7286 250° West 358 412 29,100 1,151 Climbing FlightAware ADS-B (KPHL)
Sat 07:29:11 AM 40.5446 -75.7848 250° West 362 417 29,800 1,135 Climbing FlightAware ADS-B
Sat 07:29:47 AM 40.5179 -75.8797 250° West 362 417 30,500 1,182 Climbing FlightAware ADS-B (KPHL)
Sat 07:30:17 AM 40.4998 -75.9429 250° West 365 420 31,100 1,200 Climbing FlightAware ADS-B (KPHL)
Sat 07:31:02 AM 40.4737 -76.0359 249° West 366 421 32,000 1,360 Climbing FlightAware ADS-B (KPHL)
Sat 07:31:32 AM 40.4557 -76.0982 249° West 359 413 32,800 1,680 Climbing FlightAware ADS-B (KPHL)
Sat 07:31:52 AM 40.4450 -76.1370 250° West 353 406 33,400 1,742 Climbing FlightAware ADS-B
Sat 07:32:03 AM 40.4394 -76.1555 249° West 348 400 33,700 1,500 Climbing FlightAware ADS-B (KPHL)
Sat 07:32:28 AM 40.4240 -76.2080 250° West 346 398 34,300 973 Climbing FlightAware ADS-B
Sat 07:33:17 AM 40.3970 -76.3051 250° West 349 402 34,900 792 Climbing FlightAware ADS-B (KPHL)
Sat 07:33:21 AM 40.3950 -76.3130 250° West 349 402 35,000 800 Climbing FlightAware ADS-B
Sat 07:33:47 AM 40.3802 -76.3638 250° West 349 402 35,300 727 Climbing FlightAware ADS-B (KPHL)
Sat 07:33:54 AM 40.3760 -76.3770 250° West 350 403 35,400 774 Climbing FlightAware ADS-B
Sat 07:34:18 AM 40.3637 -76.4199 249° West 351 404 35,700 667 Climbing FlightAware ADS-B (KPHL)
Sat 07:34:30 AM 40.3560 -76.4490 250° West 351 404 35,800 462 Climbing FlightAware ADS-B
Sat 07:34:31 AM 40.3577 -76.4410 250° West 351 404 35,800 667 Level FlightAware ADS-B (LFML / MRS)
Sat 07:34:48 AM 40.3460 -76.4820 253° West 353 406 36,000 200 Climbing FlightAware ADS-B
Sat 07:35:01 AM 40.3409 -76.5130 264° West 355 409 35,900  Descending FlightAware ADS-B (KPHL)
Sat 07:35:21 AM 40.3394 -76.5550 265° West 356 410 36,000 115 Climbing FlightAware ADS-B
Sat 07:35:53 AM 40.3408 -76.6251 273° West 370 426 36,000  Level FlightAware ADS-B
Sat 07:35:56 AM 40.3409 -76.6310 272° West 368 423 36,000  Level FlightAware ADS-B (LFML / MRS)
Sat 07:36:30 AM 40.3432 -76.7009 272° West 378 435 36,000  Level FlightAware ADS-B (KPHL)
Sat 07:37:02 AM 40.3444 -76.7540 272° West 385 443 36,000  Level FlightAware ADS-B (KPHL)
Sat 07:37:41 AM 40.3463 -76.8627 271° West 389 448 36,000  Level FlightAware ADS-B (LFML / MRS)
Sat 07:38:44 AM 40.3480 -76.9599 271° West 394 453 36,000  Level FlightAware ADS-B (KPHL)
Sat 07:39:39 AM 40.3507 -77.1521 271° West 399 459 36,000  Level FlightAware ADS-B (KPHL)
Sat 07:40:59 AM 40.3528 -77.3166 271° West 402 463 36,000  Level FlightAware ADS-B (KPHL)
Sat 07:41:35 AM 40.3572 -77.4167 271° West 401 461 36,000  Level Cleveland Center
Sat 07:42:36 AM 40.3597 -77.5619 271° West 401 461 36,000 197 Level Cleveland Center
Sat 07:43:37 AM 40.3622 -77.7064 271° West 401 461 36,400 488 Climbing Cleveland Center
Sat 07:44:39 AM 40.3625 -77.8472 270° West 393 452 37,000 537 Climbing Cleveland Center
Sat 07:45:40 AM 40.3644 -77.9861 271° West 388 447 37,500 492 Climbing Cleveland Center
Sat 07:46:41 AM 40.3661 -78.1225 271° West 381 438 38,000 246 Climbing Cleveland Center
Sat 07:47:42 AM 40.3667 -78.2592 270° West 379 436 38,000  Level Cleveland Center
Sat 07:48:44 AM 40.3672 -78.3986 270° West 379 436 38,000  Level Cleveland Center
Sat 07:49:45 AM 40.3686 -78.5658 271° West 381 438 38,000  Level Cleveland Center
Sat 07:50:46 AM 40.3692 -78.7056 270° West 381 438 38,000  Level Cleveland Center
Sat 07:51:47 AM 40.3697 -78.8464 270° West 382 440 38,000  Level Cleveland Center
Sat 07:52:48 AM 40.3692 -78.9878 270° West 386 444 38,000  Level Cleveland Center
Sat 07:53:50 AM 40.3697 -79.1294 270° West 386 444 38,000  Level Cleveland Center
Sat 07:54:51 AM 40.3694 -79.2706 270° West 387 445 38,000  Level Cleveland Center
Sat 07:55:52 AM 40.3692 -79.4261 270° West 390 449 38,000  Level Cleveland Center
Sat 07:56:53 AM 40.3678 -79.5678 269° West 390 449 38,000  Level Cleveland Center
Sat 07:57:55 AM 40.3667 -79.7081 269° West 389 448 38,000  Level Cleveland Center
Sat 07:58:56 AM 40.3653 -79.8486 269° West 387 445 38,000  Level Cleveland Center
Sat 07:59:57 AM 40.3639 -79.9883 269° West 386 444 38,000  Level Cleveland Center
Sat 08:00:58 AM 40.3644 -80.1408 270° West 384 442 38,000  Level Cleveland Center
Sat 08:01:59 AM 40.3628 -80.2814 269° West 384 442 38,000  Level Cleveland Center
Sat 08:03:01 AM 40.3606 -80.4206 269° West 384 442 38,000  Level Cleveland Center
Sat 08:09:18 AM 40.3430 -81.2924 269° West 370 426 38,000  Level FlightAware ADS-B
Sat 08:10:27 AM 40.3401 -81.4573 269° West 369 425 38,000  Level FlightAware ADS-B
Sat 08:11:26 AM 40.3377 -81.5888 269° West 369 425 38,000  Level FlightAware ADS-B
Sat 08:12:21 AM 40.3353 -81.7117 268° West 369 425 38,000  Level FlightAware ADS-B
Sat 08:12:57 AM 40.3336 -81.7904 268° West 369 425 38,000  Level FlightAware ADS-B
Sat 08:13:48 AM 40.3314 -81.8814 268° West 369 425 38,000  Level Indianapolis Center
Sat 08:14:49 AM 40.3286 -82.0164 268° West 369 425 38,000  Level Indianapolis Center
Sat 08:15:50 AM 40.3247 -82.1528 268° West 369 425 38,000  Level Indianapolis Center
Sat 08:16:52 AM 40.3214 -82.2881 268° West 369 425 38,000  Level Indianapolis Center
Sat 08:17:53 AM 40.3167 -82.4239 267° West 369 425 38,000  Level Indianapolis Center
Sat 08:18:54 AM 40.3125 -82.5592 268° West 369 425 38,000  Level Indianapolis Center
Sat 08:19:56 AM 40.3089 -82.6978 268° West 371 427 38,000  Level Indianapolis Center
Sat 08:20:57 AM 40.3042 -82.8369 267° West 371 427 38,000  Level Indianapolis Center
Sat 08:21:58 AM 40.2994 -82.9739 267° West 375 432 38,000  Level Indianapolis Center
Sat 08:23:00 AM 40.2964 -83.1100 268° West 375 432 38,000  Level Indianapolis Center
Sat 08:24:01 AM 40.2908 -83.2739 268° West 375 432 38,000  Level Indianapolis Center
Sat 08:25:02 AM 40.2872 -83.4117 268° West 376 433 38,000  Level Indianapolis Center
Sat 08:30:26 AM 40.2649 -84.1797 267° West 384 442 38,000  Level FlightAware ADS-B
Sat 08:31:03 AM 40.2581 -84.2303 267° West 380 437 38,000  Level Kansas City Center
Sat 08:31:39 AM 40.2536 -84.3278 267° West 382 440 38,000  Level Chicago Center
Sat 08:32:12 AM 40.2500 -84.4025 266° West 382 440 38,000  Level Indianapolis Center
Sat 08:33:13 AM 40.2442 -84.5417 267° West 384 442 38,000  Level Indianapolis Center
Sat 08:34:15 AM 40.2378 -84.6817 267° West 384 442 38,000  Level Indianapolis Center
Sat 08:35:16 AM 40.2319 -84.8214 267° West 385 443 38,000  Level Indianapolis Center
Sat 08:36:18 AM 40.2250 -84.9719 267° West 385 443 38,000  Level Indianapolis Center
Sat 08:37:19 AM 40.2189 -85.1117 267° West 385 443 38,000  Level Indianapolis Center
Sat 08:38:21 AM 40.2114 -85.2522 266° West 386 444 38,000  Level Indianapolis Center
Sat 08:39:22 AM 40.2053 -85.3917 267° West 386 444 38,000  Level Indianapolis Center
Sat 08:40:23 AM 40.1972 -85.5336 266° West 389 448 38,000  Level Indianapolis Center
Sat 08:41:25 AM 40.1908 -85.6736 267° West 389 448 38,000  Level Indianapolis Center
Sat 08:42:26 AM 40.1819 -85.8394 266° West 387 445 38,000  Level Indianapolis Center
Sat 08:43:28 AM 40.1736 -85.9767 265° West 385 443 38,000  Level Indianapolis Center
Sat 08:49:01 AM 40.1354 -86.7524 265° West 373 429 38,000  Level FlightAware ADS-B
Sat 08:49:50 AM 40.1284 -86.8621 265° West 373 429 38,000  Level FlightAware ADS-B
Sat 08:51:42 AM 40.1117 -87.1133 265° West 374 430 38,000  Level FlightAware ADS-B
Sat 08:52:25 AM 40.1054 -87.2090 265° West 374 430 38,000  Level FlightAware ADS-B
Sat 08:53:02 AM 40.0997 -87.2917 265° West 375 432 38,000  Level FlightAware ADS-B
Sat 08:53:45 AM 40.0930 -87.3881 265° West 376 433 38,000  Level FlightAware ADS-B
Sat 08:54:25 AM 40.0865 -87.4793 265° West 377 434 38,000  Level FlightAware ADS-B
Sat 08:54:56 AM 40.0817 -87.5486 265° West 377 434 38,000  Level FlightAware ADS-B
Sat 08:55:48 AM 40.0733 -87.6667 265° West 377 434 38,000  Level FlightAware ADS-B
Sat 08:56:58 AM 40.0618 -87.8248 265° West 378 435 38,000  Level FlightAware ADS-B
Sat 08:57:36 AM 40.0555 -87.9103 265° West 379 436 38,000  Level FlightAware ADS-B
Sat 08:58:16 AM 40.0488 -88.0002 264° West 380 437 38,000  Level FlightAware ADS-B
Sat 08:58:58 AM 40.0415 -88.0946 264° West 380 437 38,000  Level FlightAware ADS-B
Sat 08:59:28 AM 40.0364 -88.1639 264° West 381 438 38,000  Level FlightAware ADS-B
Sat 09:00:16 AM 40.0278 -88.2740 264° West 382 440 38,000  Level FlightAware ADS-B
Sat 09:02:34 AM 40.0031 -88.5886 264° West 385 443 38,000  Level FlightAware ADS-B
Sat 09:06:05 AM 39.9629 -89.0793 264° West 390 449 38,000  Level FlightAware ADS-B
Sat 09:10:28 AM 39.9099 -89.6933 263° West 394 453 38,000  Level FlightAware ADS-B
Sat 09:11:34 AM 39.8983 -89.8258 263° West 396 456 38,000  Level Chicago Center
Sat 09:12:36 AM 39.8839 -89.9683 263° West 395 455 38,000  Level Chicago Center
Sat 09:13:51 AM 39.8694 -90.1375 264° West 392 451 38,000  Level Kansas City Center
Sat 09:14:52 AM 39.8567 -90.2806 263° West 392 451 38,000  Level Kansas City Center
Sat 09:15:54 AM 39.8442 -90.4242 264° West 392 451 38,000  Level Kansas City Center
Sat 09:16:55 AM 39.8297 -90.5664 263° West 394 453 38,000  Level Kansas City Center
Sat 09:17:56 AM 39.8161 -90.7092 263° West 394 453 38,000  Level Kansas City Center
Sat 09:18:57 AM 39.8003 -90.8808 263° West 395 455 38,000  Level Kansas City Center
Sat 09:19:59 AM 39.7861 -91.0056 262° West 395 455 38,000  Level Kansas City Center
Sat 09:21:00 AM 39.7719 -91.1475 263° West 395 455 38,000  Level Kansas City Center
Sat 09:22:01 AM 39.7569 -91.3106 263° West 398 458 38,000  Level Kansas City Center
Sat 09:23:03 AM 39.7417 -91.4608 263° West 398 458 38,000  Level Kansas City Center
Sat 09:24:04 AM 39.7267 -91.6031 262° West 398 458 38,000  Level Kansas City Center
Sat 09:25:05 AM 39.7108 -91.7456 262° West 398 458 38,000  Level Kansas City Center
Sat 09:26:07 AM 39.6944 -91.8897 262° West 399 459 38,000  Level Kansas City Center
Sat 09:27:08 AM 39.6814 -92.0300 263° West 399 459 38,000  Level Kansas City Center
Sat 09:28:09 AM 39.6661 -92.1692 262° West 394 453 38,000  Level Kansas City Center
Sat 09:29:11 AM 39.6511 -92.3100 262° West 394 453 38,000  Level Kansas City Center
Sat 09:30:12 AM 39.6350 -92.4508 262° West 394 453 38,000  Level Kansas City Center
Sat 09:31:14 AM 39.6164 -92.6200 262° West 394 453 38,000  Level Kansas City Center
Sat 09:32:15 AM 39.5997 -92.7600 261° West 397 457 38,000  Level Kansas City Center
Sat 09:37:35 AM 39.5175 -93.5214 261° West 396 456 38,000  Level FlightAware ADS-B
Sat 09:38:06 AM 39.5090 -93.5942 261° West 397 457 38,000  Level FlightAware ADS-B
Sat 09:38:36 AM 39.5006 -93.6647 261° West 398 458 38,000  Level FlightAware ADS-B
Sat 09:39:07 AM 39.4921 -93.7359 261° West 399 459 38,000  Level FlightAware ADS-B
Sat 09:39:37 AM 39.4836 -93.8073 261° West 400 460 38,000  Level FlightAware ADS-B
Sat 09:40:08 AM 39.4749 -93.8790 261° West 400 460 38,000  Level FlightAware ADS-B
Sat 09:40:38 AM 39.4663 -93.9503 261° West 401 461 38,000  Level FlightAware ADS-B
Sat 09:41:09 AM 39.4572 -94.0239 261° West 401 461 38,000  Level FlightAware ADS-B
Sat 09:41:39 AM 39.4484 -94.0955 261° West 402 463 38,000  Level FlightAware ADS-B
Sat 09:42:14 AM 39.4383 -94.1783 261° West 403 464 38,000  Level FlightAware ADS-B
Sat 09:42:45 AM 39.4292 -94.2522 261° West 404 465 38,000  Level FlightAware ADS-B
Sat 09:43:24 AM 39.4177 -94.3441 261° West 404 465 38,000  Level FlightAware ADS-B
Sat 09:43:54 AM 39.4086 -94.4163 261° West 404 465 38,000  Level FlightAware ADS-B
Sat 09:44:25 AM 39.3993 -94.4896 261° West 404 465 38,000  Level FlightAware ADS-B
Sat 09:44:56 AM 39.3900 -94.5629 261° West 405 466 38,000  Level FlightAware ADS-B
Sat 09:45:26 AM 39.3808 -94.6350 261° West 406 467 38,000  Level FlightAware ADS-B
Sat 09:45:57 AM 39.3712 -94.7098 261° West 407 468 38,000  Level FlightAware ADS-B
Sat 09:46:29 AM 39.3615 -94.7850 261° West 407 468 38,000  Level FlightAware ADS-B
Sat 09:46:59 AM 39.3521 -94.8573 261° West 408 470 38,000  Level FlightAware ADS-B
Sat 09:47:30 AM 39.3425 -94.9319 260° West 408 470 38,000  Level FlightAware ADS-B
Sat 09:48:00 AM 39.3329 -95.0040 260° West 408 470 38,000  Level FlightAware ADS-B
Sat 09:48:31 AM 39.3233 -95.0778 260° West 408 470 38,000  Level FlightAware ADS-B
Sat 09:49:01 AM 39.3136 -95.1498 260° West 408 470 38,000  Level FlightAware ADS-B
Sat 09:49:31 AM 39.3041 -95.2218 260° West 408 470 38,000  Level FlightAware ADS-B
Sat 09:50:02 AM 39.2944 -95.2944 260° West 409 471 38,000  Level FlightAware ADS-B
Sat 09:50:32 AM 39.2846 -95.3668 260° West 409 471 38,000  Level FlightAware ADS-B
Sat 09:51:04 AM 39.2744 -95.4428 260° West 409 471 38,000  Level FlightAware ADS-B
Sat 09:51:34 AM 39.2642 -95.5163 260° West 409 471 38,000  Level FlightAware ADS-B
Sat 09:51:40 AM 39.2623 -95.5306 260° West 409 471 38,000  Level FlightAware ADS-B (EGNC / CAX)
Sat 09:52:05 AM 39.2540 -95.5907 260° West 409 471 38,000  Level FlightAware ADS-B
Sat 09:52:12 AM 39.2515 -95.6083 260° West 410 472 38,000  Level FlightAware ADS-B (EGNC / CAX)
Sat 09:52:36 AM 39.2440 -95.6637 260° West 410 472 38,000  Level FlightAware ADS-B
Sat 09:52:42 AM 39.2419 -95.6786 260° West 410 472 38,000  Level FlightAware ADS-B (EGNC / CAX)
Sat 09:53:06 AM 39.2338 -95.7366 260° West 410 472 38,000  Level FlightAware ADS-B
Sat 09:53:22 AM 39.2285 -95.7745 260° West 411 473 38,000  Level FlightAware ADS-B (EGNC / CAX)
Sat 09:53:36 AM 39.2238 -95.8093 260° West 411 473 38,000  Level FlightAware ADS-B
Sat 09:53:58 AM 39.2192 -95.8408 260° West 411 473 38,000  Level FlightAware ADS-B (EGNC / CAX)
Sat 09:54:16 AM 39.2102 -95.9056 260° West 411 473 38,000  Level FlightAware ADS-B
Sat 09:54:47 AM 39.1997 -95.9800 260° West 411 473 38,000  Level FlightAware ADS-B
Sat 09:55:18 AM 39.1892 -96.0540 259° West 411 473 38,000  Level FlightAware ADS-B
Sat 09:55:48 AM 39.1788 -96.1260 260° West 410 472 38,000  Level FlightAware ADS-B
Sat 09:56:18 AM 39.1685 -96.1979 259° West 410 472 38,000  Level FlightAware ADS-B
Sat 09:56:49 AM 39.1580 -96.2703 259° West 410 472 38,000  Level FlightAware ADS-B
Sat 09:57:19 AM 39.1476 -96.3423 259° West 410 472 38,000  Level FlightAware ADS-B
Sat 09:57:41 AM 39.1398 -96.3957 259° West 410 472 38,000  Level FlightAware ADS-B (EGNC / CAX)
Sat 09:57:49 AM 39.1368 -96.4160 259° West 410 472 38,000  Level FlightAware ADS-B
Sat 09:58:20 AM 39.1262 -96.4881 259° West 410 472 38,000  Level FlightAware ADS-B
Sat 09:58:21 AM 39.1255 -96.4920 259° West 410 472 38,000  Level FlightAware ADS-B (EGNC / CAX)
Sat 09:58:50 AM 39.1152 -96.5619 259° West 410 472 38,000  Level FlightAware ADS-B
Sat 09:59:22 AM 39.1041 -96.6367 259° West 410 472 38,000  Level FlightAware ADS-B
Sat 09:59:53 AM 39.0931 -96.7106 259° West 410 472 38,000  Level FlightAware ADS-B
Sat 10:00:45 AM 39.0742 -96.8367 259° West 411 473 38,000  Level FlightAware ADS-B
Sat 10:01:23 AM 39.0607 -96.9259 259° West 411 473 38,000  Level FlightAware ADS-B
Sat 10:01:53 AM 39.0495 -96.9989 259° West 412 474 38,000  Level FlightAware ADS-B
Sat 10:02:23 AM 39.0383 -97.0713 259° West 413 475 38,000  Level FlightAware ADS-B
Sat 10:02:54 AM 39.0270 -97.1445 259° West 414 476 38,000  Level FlightAware ADS-B
Sat 10:03:24 AM 39.0158 -97.2175 259° West 415 478 38,000  Level FlightAware ADS-B
Sat 10:03:55 AM 39.0043 -97.2910 259° West 415 478 38,000  Level FlightAware ADS-B
Sat 10:04:25 AM 38.9928 -97.3643 259° West 416 479 38,000  Level FlightAware ADS-B
Sat 10:04:55 AM 38.9813 -97.4371 259° West 416 479 38,000  Level FlightAware ADS-B
Sat 10:05:25 AM 38.9698 -97.5109 259° West 417 480 38,000  Level FlightAware ADS-B
Sat 10:05:55 AM 38.9581 -97.5836 258° West 419 482 38,000  Level FlightAware ADS-B
Sat 10:07:10 AM 38.9293 -97.7639 258° West 419 482 38,000  Level FlightAware ADS-B
Sat 10:07:40 AM 38.9173 -97.8374 258° West 420 483 38,000  Level FlightAware ADS-B
Sat 10:08:10 AM 38.9054 -97.9111 258° West 419 482 38,000  Level FlightAware ADS-B
Sat 10:08:41 AM 38.8932 -97.9858 258° West 418 481 38,000  Level FlightAware ADS-B
Sat 10:09:11 AM 38.8811 -98.0592 258° West 418 481 38,000  Level FlightAware ADS-B
Sat 10:09:42 AM 38.8692 -98.1324 258° West 417 480 38,000  Level FlightAware ADS-B
Sat 10:10:12 AM 38.8572 -98.2052 258° West 416 479 38,000  Level FlightAware ADS-B
Sat 10:10:42 AM 38.8449 -98.2781 258° West 415 478 38,000  Level FlightAware ADS-B
Sat 10:11:12 AM 38.8329 -98.3500 258° West 414 476 38,000  Level FlightAware ADS-B
Sat 10:12:12 AM 38.7969 -98.4783 258° West 416 479 38,000  Level Kansas City Center
Sat 10:13:14 AM 38.7728 -98.6217 258° West 415 478 38,000  Level Kansas City Center
Sat 10:14:15 AM 38.7483 -98.7647 258° West 415 478 38,000  Level Kansas City Center
Sat 10:15:17 AM 38.7250 -98.9061 258° West 413 475 38,000  Level Kansas City Center
Sat 10:16:18 AM 38.6992 -99.0492 257° West 413 475 38,000  Level Kansas City Center
Sat 10:17:20 AM 38.6747 -99.1914 258° West 412 474 38,000  Level Kansas City Center
Sat 10:18:21 AM 38.6522 -99.3325 259° West 410 472 38,000  Level Kansas City Center
Sat 10:19:23 AM 38.6208 -99.5039 257° West 410 472 38,000  Level Kansas City Center
Sat 10:20:24 AM 38.5950 -99.6500 257° West 410 472 38,000  Level Kansas City Center
Sat 10:21:26 AM 38.5714 -99.7858 258° West 410 472 38,000  Level Kansas City Center
Sat 10:22:27 AM 38.5439 -99.9417 257° West 409 471 38,000  Level Kansas City Center
Sat 10:23:28 AM 38.5186 -100.0761 257° West 409 471 38,000  Level Kansas City Center
Sat 10:24:30 AM 38.4939 -100.2100 257° West 408 470 38,000  Level Kansas City Center
Sat 10:25:31 AM 38.4650 -100.3656 257° West 408 470 38,000  Level Kansas City Center
Sat 10:26:33 AM 38.4403 -100.4997 257° West 408 470 38,000  Level Kansas City Center
Sat 10:27:34 AM 38.4114 -100.6556 257° West 407 468 38,000  Level Kansas City Center
Sat 10:28:36 AM 38.3864 -100.7883 257° West 407 468 38,000  Level Kansas City Center
Sat 10:29:37 AM 38.3556 -100.9450 256° West 407 468 38,000  Level Kansas City Center
Sat 10:30:38 AM 38.3308 -101.0758 256° West 404 465 38,000  Level Kansas City Center
Sat 10:31:15 AM 38.3139 -101.1625 256° West 403 464 38,000  Level Denver Center
Sat 10:32:17 AM 38.2886 -101.2944 256° West 403 464 38,000  Level Denver Center
Sat 10:33:19 AM 38.2589 -101.4483 256° West 403 464 38,000  Level Denver Center
Sat 10:34:21 AM 38.2336 -101.5803 256° West 403 464 38,000  Level Denver Center
Sat 10:35:22 AM 38.2031 -101.7344 256° West 403 464 38,000  Level Denver Center
Sat 10:36:24 AM 38.1767 -101.8678 256° West 404 465 38,000  Level Denver Center
Sat 10:42:23 AM 38.0141 -102.7078 255° West 400 460 38,000  Level FlightAware ADS-B (KEIK)
Sat 10:43:12 AM 37.9904 -102.8222 255° West 399 459 38,000  Level FlightAware ADS-B (KEIK)
Sat 10:43:50 AM 37.9742 -102.9016 255° West 399 459 38,000  Level FlightAware ADS-B (KEIK)
Sat 10:44:30 AM 37.9538 -102.9989 255° West 400 460 38,000  Level FlightAware ADS-B (KEIK)
Sat 10:45:16 AM 37.9343 -103.0924 255° West 399 459 38,000  Level FlightAware ADS-B (KEIK)
Sat 10:46:22 AM 37.9015 -103.2483 255° West 398 458 38,000  Level FlightAware ADS-B (KEIK)
Sat 10:47:04 AM 37.8813 -103.3447 255° West 397 457 38,000  Level FlightAware ADS-B (KEIK)
Sat 10:47:34 AM 37.8669 -103.4127 255° West 397 457 38,000  Level FlightAware ADS-B (KEIK)
Sat 10:48:11 AM 37.8493 -103.4956 255° West 397 457 38,000  Level FlightAware ADS-B (KEIK)
Sat 10:49:01 AM 37.8256 -103.6065 255° West 398 458 38,000  Level FlightAware ADS-B (KEIK)
Sat 10:49:47 AM 37.8070 -103.6950 255° West 398 458 38,000  Level FlightAware ADS-B (KEIK)
Sat 10:50:17 AM 37.7996 -103.7290 255° West 396 456 38,000  Level FlightAware ADS-B (KEIK)
Sat 10:50:54 AM 37.7716 -103.8602 255° West 394 453 38,000  Level FlightAware ADS-B (KEIK)
Sat 10:52:08 AM 37.7365 -104.0224 255° West 393 452 38,000  Level FlightAware ADS-B (KEIK)
Sat 10:52:42 AM 37.7206 -104.0962 255° West 393 452 38,000  Level FlightAware ADS-B (KEIK)
Sat 10:53:45 AM 37.6906 -104.2349 255° West 392 451 38,000  Level FlightAware ADS-B (KEIK)
Sat 10:54:44 AM 37.6637 -104.3578 255° West 389 448 38,000 66 Level FlightAware ADS-B (KEIK)
Sat 10:55:16 AM 37.6489 -104.4248 255° West 386 444 38,100  Climbing FlightAware ADS-B (KEIK)
Sat 10:56:14 AM 37.6184 -104.5635 255° West 389 448 38,000 -63 Descending FlightAware ADS-B (KEIK)
Sat 10:56:51 AM 37.6058 -104.6206 254° West 387 445 38,000  Level FlightAware ADS-B (KEIK)
Sat 10:57:26 AM 37.5851 -104.7145 254° West 386 444 38,000  Level FlightAware ADS-B (KEIK)
Sat 10:58:12 AM 37.5625 -104.8158 254° West 387 445 38,000  Level FlightAware ADS-B (KEIK)
Sat 10:58:49 AM 37.5444 -104.8972 254° West 389 448 38,000  Level FlightAware ADS-B (KEIK)
Sat 11:00:10 AM 37.5045 -105.0742 254° West 394 453 38,000  Level FlightAware ADS-B (KEIK)
Sat 11:00:49 AM 37.4887 -105.1617 258° West 397 457 38,000  Level FlightAware ADS-B (KEIK)
Sat 11:01:31 AM 37.4729 -105.2537 258° West 399 459 38,000  Level FlightAware ADS-B
Sat 11:02:26 AM 37.4523 -105.3712 257° West 401 461 38,000  Level FlightAware ADS-B (KEIK)
Sat 11:03:29 AM 37.4251 -105.5236 257° West 399 459 38,000  Level FlightAware ADS-B (KEIK)
Sat 11:04:19 AM 37.4045 -105.6377 257° West 396 456 38,000  Level FlightAware ADS-B (KEIK)
Sat 11:05:05 AM 37.4020 -105.6515 257° West 393 452 38,000  Level FlightAware ADS-B (KGUC)
Sat 11:05:37 AM 37.3733 -105.8089 257° West 390 449 38,000  Level FlightAware ADS-B (KGUC)
Sat 11:06:28 AM 37.3528 -105.9213 257° West 385 443 38,000  Level FlightAware ADS-B (KGUC)
Sat 11:06:58 AM 37.3424 -105.9775 257° West 383 441 38,000  Level FlightAware ADS-B (KGUC)
Sat 11:07:44 AM 37.3231 -106.0821 257° West 379 436 38,000  Level FlightAware ADS-B
Sat 11:08:18 AM 37.3092 -106.1572 257° West 379 436 38,000  Level FlightAware ADS-B (KGUC)
Sat 11:08:48 AM 37.2970 -106.2229 257° West 378 435 38,000  Level FlightAware ADS-B (KGUC)
Sat 11:09:18 AM 37.2853 -106.2863 257° West 377 434 38,000  Level FlightAware ADS-B (KGUC)
Sat 11:09:48 AM 37.2738 -106.3463 257° West 378 435 38,000  Level FlightAware ADS-B (KGUC)
Sat 11:10:18 AM 37.2612 -106.4136 257° West 380 437 38,000  Level FlightAware ADS-B (KGUC)
Sat 11:10:48 AM 37.2491 -106.4773 257° West 382 440 38,000  Level FlightAware ADS-B (KGUC)
Sat 11:11:38 AM 37.2286 -106.5857 257° West 384 442 38,000  Level FlightAware ADS-B (KGUC)
Sat 11:12:11 AM 37.2150 -106.6572 257° West 387 445 38,000  Level FlightAware ADS-B
Sat 11:12:48 AM 37.1997 -106.7374 257° West 388 447 38,000  Level FlightAware ADS-B
Sat 11:13:18 AM 37.1881 -106.7973 256° West 388 447 38,000  Level FlightAware ADS-B (KGUC)
Sat 11:13:48 AM 37.1758 -106.8614 256° West 388 447 38,000  Level FlightAware ADS-B (KGUC)
Sat 11:14:20 AM 37.1623 -106.9307 257° West 386 444 38,000  Level FlightAware ADS-B
Sat 11:14:51 AM 37.1477 -107.0057 256° West 386 444 38,000  Level FlightAware ADS-B
Sat 11:15:27 AM 37.1326 -107.0827 256° West 386 444 38,000  Level FlightAware ADS-B
Sat 11:15:58 AM 37.1193 -107.1502 256° West 385 443 38,000  Level FlightAware ADS-B (KGUC)
Sat 11:16:28 AM 37.1069 -107.2143 256° West 384 442 38,000  Level FlightAware ADS-B (KGUC)
Sat 11:17:02 AM 37.0922 -107.2888 256° West 384 442 38,000  Level FlightAware ADS-B
Sat 11:17:41 AM 37.0756 -107.3722 256° West 384 442 38,000  Level FlightAware ADS-B
Sat 11:18:18 AM 37.0594 -107.4524 256° West 383 441 38,000  Level FlightAware ADS-B (KGUC)
Sat 11:18:59 AM 37.0420 -107.5394 256° West 383 441 38,000  Level FlightAware ADS-B (KGUC)
Sat 11:19:33 AM 37.0275 -107.6111 256° West 382 440 38,000  Level FlightAware ADS-B
Sat 11:20:04 AM 37.0141 -107.6772 256° West 382 440 38,000  Level FlightAware ADS-B
Sat 11:20:40 AM 37.0008 -107.7423 256° West 381 438 38,000  Level FlightAware ADS-B (KGUC)
Sat 11:21:18 AM 36.9818 -107.8353 256° West 381 438 38,000  Level FlightAware ADS-B
Sat 11:21:48 AM 36.9689 -107.8985 256° West 381 438 38,000  Level FlightAware ADS-B
Sat 11:22:30 AM 36.9513 -107.9836 255° West 383 441 38,000  Level FlightAware ADS-B (KGUC)
Sat 11:23:05 AM 36.9351 -108.0619 255° West 383 441 38,000  Level FlightAware ADS-B
Sat 11:23:40 AM 36.9191 -108.1382 256° West 382 440 38,000  Level FlightAware ADS-B
Sat 11:24:10 AM 36.9063 -108.1997 256° West 383 441 38,000  Level FlightAware ADS-B
Sat 11:24:40 AM 36.8927 -108.2645 255° West 382 440 38,000  Level FlightAware ADS-B (KGUC)
Sat 11:25:10 AM 36.8798 -108.3260 255° West 382 440 38,000  Level FlightAware ADS-B (KGUC)
Sat 11:25:47 AM 36.8625 -108.4078 255° West 382 440 38,000  Level FlightAware ADS-B
Sat 11:26:22 AM 36.8472 -108.4796 255° West 381 438 38,000  Level FlightAware ADS-B
Sat 11:26:53 AM 36.8330 -108.5473 255° West 383 441 38,000  Level FlightAware ADS-B
Sat 11:27:26 AM 36.8187 -108.6142 255° West 383 441 38,000  Level FlightAware ADS-B
Sat 11:28:12 AM 36.7975 -108.7130 255° West 386 444 38,000  Level FlightAware ADS-B
Sat 11:28:49 AM 36.7792 -108.7970 255° West 387 445 38,000  Level FlightAware ADS-B (KGUC)
Sat 11:29:20 AM 36.7648 -108.8636 255° West 387 445 38,000  Level FlightAware ADS-B (KGUC)
Sat 11:29:50 AM 36.7512 -108.9268 255° West 386 444 38,000  Level FlightAware ADS-B (KGUC)
Sat 11:30:20 AM 36.7379 -108.9886 255° West 387 445 38,000  Level FlightAware ADS-B (KGUC)
Sat 11:30:50 AM 36.7234 -109.0542 255° West 387 445 38,000  Level FlightAware ADS-B (KGUC)
Sat 11:31:29 AM 36.7042 -109.1410 255° West 387 445 38,000  Level FlightAware ADS-B (KGUC)
Sat 11:32:00 AM 36.6896 -109.2073 255° West 388 447 38,000  Level FlightAware ADS-B (KGUC)
Sat 11:32:30 AM 36.6764 -109.2672 255° West 388 447 38,000  Level FlightAware ADS-B (KGUC)
Sat 11:33:00 AM 36.6613 -109.3352 255° West 388 447 38,000  Level FlightAware ADS-B (KGUC)
Sat 11:33:30 AM 36.6472 -109.3987 255° West 388 447 38,000  Level FlightAware ADS-B (KGUC)
Sat 11:34:22 AM 36.6223 -109.5101 254° West 387 445 38,000  Level FlightAware ADS-B
Sat 11:35:24 AM 36.5925 -109.6431 255° West 388 447 38,000  Level FlightAware ADS-B
Sat 11:36:18 AM 36.5669 -109.7563 254° West 390 449 38,000  Level FlightAware ADS-B (KGUC)
Sat 11:37:25 AM 36.5334 -109.9035 254° West 390 449 38,000  Level FlightAware ADS-B
Sat 11:38:28 AM 36.5032 -110.0352 254° West 389 448 38,000  Level FlightAware ADS-B
Sat 11:39:18 AM 36.4789 -110.1418 254° West 389 448 38,000  Level FlightAware ADS-B (KGUC)
Sat 11:40:02 AM 36.4699 -110.1804 254° West 388 447 38,000  Level FlightAware ADS-B
Sat 11:41:31 AM 36.4117 -110.4311 254° West 387 445 38,000  Level FlightAware ADS-B
Sat 11:42:32 AM 36.3824 -110.5562 254° West 386 444 38,000  Level FlightAware ADS-B
Sat 11:43:20 AM 36.3574 -110.6621 254° West 386 444 38,000  Level FlightAware ADS-B
Sat 11:44:21 AM 36.3269 -110.7919 254° West 386 444 38,000  Level FlightAware ADS-B (KGUC)
Sat 11:44:52 AM 36.3111 -110.8585 254° West 385 443 38,000  Level FlightAware ADS-B (KGUC)
Sat 11:46:17 AM 36.2683 -111.0379 254° West 387 445 38,000  Level FlightAware ADS-B
Sat 11:47:47 AM 36.2249 -111.2184 254° West 388 447 38,000  Level FlightAware ADS-B
Sat 11:48:53 AM 36.1887 -111.3640 249° West 389 448 38,000  Level FlightAware ADS-B
Sat 11:52:06 AM 36.0558 -111.7643 248° West 389 448 38,000  Level FlightAware ADS-B
Sat 11:53:03 AM 36.0170 -111.8806 248° West 387 445 38,000  Level FlightAware ADS-B
Sat 11:54:12 AM 35.9732 -112.0117 248° West 387 445 38,000  Level FlightAware ADS-B
Sat 11:55:11 AM 35.9299 -112.1404 248° West 386 444 38,000  Level FlightAware ADS-B
Sat 11:56:27 AM 35.8897 -112.2601 248° West 387 445 38,000  Level FlightAware ADS-B
Sat 12:00:07 PM 36.0558 -111.7643 247° West 392 451 38,000  Level FlightAware ADS-B
Sat 12:01:07 PM 35.6733 -112.8458 247° West 391 450 38,000  Level Los Angeles Center
Sat 12:02:09 PM 35.6306 -112.9689 247° West 391 450 38,000  Level Los Angeles Center
Sat 12:03:11 PM 35.5878 -113.0925 247° West 391 450 38,000  Level Los Angeles Center
Sat 12:04:13 PM 35.5447 -113.2175 247° West 392 451 38,000  Level Los Angeles Center
Sat 12:05:15 PM 35.5006 -113.3467 247° West 395 455 38,000  Level Los Angeles Center
Sat 12:06:17 PM 35.4572 -113.4697 247° West 396 456 38,000  Level Los Angeles Center
Sat 12:07:19 PM 35.4056 -113.6178 247° West 396 456 38,000  Level Los Angeles Center
Sat 12:08:21 PM 35.3619 -113.7414 247° West 396 456 38,000  Level Los Angeles Center
Sat 12:09:23 PM 35.3178 -113.8644 246° West 396 456 38,000  Level Los Angeles Center
Sat 12:10:25 PM 35.2736 -113.9886 246° West 396 456 38,000  Level Los Angeles Center
Sat 12:11:27 PM 35.2292 -114.1128 246° West 396 456 38,000  Level Los Angeles Center
Sat 12:12:29 PM 35.1850 -114.2364 246° West 396 456 38,000  Level Los Angeles Center
Sat 12:13:31 PM 35.1317 -114.3881 247° West 399 459 38,000  Level Los Angeles Center
Sat 12:14:33 PM 35.0867 -114.5122 246° West 400 460 38,000  Level Los Angeles Center
Sat 12:15:35 PM 35.0406 -114.6364 246° West 401 461 38,000  Level Los Angeles Center
Sat 12:16:37 PM 34.9956 -114.7617 246° West 401 461 38,000  Level Los Angeles Center
Sat 12:17:39 PM 34.9494 -114.8869 246° West 402 463 38,000  Level Los Angeles Center
Sat 12:18:41 PM 34.9036 -115.0106 246° West 402 463 38,000  Level Los Angeles Center
Sat 12:24:28 PM 34.6767 -115.6811 246° West 399 459 38,000  Level FlightAware ADS-B
Sat 12:25:05 PM 34.6242 -115.8213 246° West 399 459 38,000  Level FlightAware ADS-B
Sat 12:25:40 PM 34.5976 -115.8928 246° West 396 456 38,000 -892 Level FlightAware ADS-B (KBNG)
Sat 12:26:19 PM 34.5667 -115.9755 246° West 403 464 36,900 -1,360 Descending FlightAware ADS-B
Sat 12:26:55 PM 34.5488 -116.0230 246° West 400 460 36,300 -1,714 Descending FlightAware ADS-B
Sat 12:27:36 PM 34.5090 -116.1290 246° West 387 445 34,700 -2,000 Descending FlightAware ADS-B
Sat 12:28:16 PM 34.4783 -116.2101 245° Southwest 382 440 33,600 -1,726 Descending FlightAware ADS-B (KBNG)
Sat 12:28:49 PM 34.4580 -116.2639 245° Southwest 377 434 32,600 -1,969 Descending FlightAware ADS-B (KBNG)
Sat 12:29:20 PM 34.4321 -116.3324 245° Southwest 377 434 31,500 -2,177 Descending FlightAware ADS-B (KBNG)
Sat 12:30:42 PM 34.3713 -116.4927 245° Southwest 408 470 28,500 -2,250 Descending FlightAware ADS-B (KBNG)
Sat 12:31:20 PM 34.3428 -116.5672 245° Southwest 418 481 27,000 -2,108 Descending FlightAware ADS-B (KBNG)
Sat 12:31:56 PM 34.3169 -116.6350 245° Southwest 409 471 25,900 -1,886 Descending FlightAware ADS-B (KBNG)
Sat 12:32:30 PM 34.2846 -116.7195 245° Southwest 403 464 24,800 -1,820 Descending FlightAware ADS-B (KBNG)
Sat 12:33:25 PM 34.2442 -116.8247 245° Southwest 392 451 23,200 -1,814 Descending FlightAware ADS-B
Sat 12:33:56 PM 34.2206 -116.8860 245° Southwest 373 429 22,200 -1,837 Descending FlightAware ADS-B (KBNG)
Sat 12:35:03 PM 34.1717 -117.0126 245° Southwest 361 415 20,200 -1,604 Descending FlightAware ADS-B (KBNG)
Sat 12:35:37 PM 34.1659 -117.0276 245° Southwest 360 414 19,500 -1,378 Descending FlightAware ADS-B (KBNG)
Sat 12:36:17 PM 34.1214 -117.1381 242° Southwest 358 412 18,500 -1,714 Descending FlightAware ADS-B
Sat 12:36:47 PM 34.0944 -117.1987 242° Southwest 353 406 17,500 -1,882 Descending FlightAware ADS-B (KBNG)
Sat 12:37:08 PM 34.0791 -117.2349 251° West 348 400 16,900 -2,118 Descending FlightAware ADS-B
Sat 12:37:21 PM 34.0737 -117.2588 263° West 347 399 16,300 -1,750 Descending FlightAware ADS-B (KBNG)
Sat 12:37:56 PM 34.0676 -117.3237 265° West 348 400 15,500 -1,541 Descending FlightAware ADS-B
Sat 12:38:35 PM 34.0615 -117.4010 264° West 340 391 14,400 -1,886 Descending FlightAware ADS-B
Sat 12:39:06 PM 34.0569 -117.4531 264° West 319 367 13,300 -1,869 Descending FlightAware ADS-B
Sat 12:39:36 PM 34.0524 -117.5027 264° West 301 346 12,500 -1,676 Descending FlightAware ADS-B
Sat 12:40:14 PM 34.0470 -117.5626 263° West 286 329 11,400 -1,652 Descending FlightAware ADS-B
Sat 12:40:45 PM 34.0421 -117.6122 263° West 270 311 10,600 -1,217 Descending FlightAware ADS-B
Sat 12:41:23 PM 34.0367 -117.6678 263° West 252 290 10,000 -818 Descending FlightAware ADS-B
Sat 12:41:29 PM 34.0355 -117.6788 264° West 301 346 10,000 -273 Level FlightAware ADS-B
Sat 12:41:45 PM 34.0339 -117.6945 263° West 254 292 9,900 -750 Descending FlightAware ADS-B
Sat 12:41:53 PM 34.0323 -117.7108 264° West 256 295 9,700 -1,364 Descending FlightAware ADS-B
Sat 12:42:07 PM 34.0305 -117.7300 263° West 254 292 9,400 -1,500 Descending FlightAware ADS-B
Sat 12:42:25 PM 34.0279 -117.7549 263° West 243 280 8,900 -1,941 Descending FlightAware ADS-B
Sat 12:42:41 PM 34.0258 -117.7763 263° West 226 260 8,300 -1,565 Descending FlightAware ADS-B
Sat 12:42:48 PM 34.0250 -117.7855 264° West 226 260 8,300 -783 Level FlightAware ADS-B
Sat 12:43:04 PM 34.0233 -117.8035 264° West 213 245 8,000 -783 Descending FlightAware ADS-B
Sat 12:43:11 PM 34.0224 -117.8127 264° West 226 260 8,000 -273 Level FlightAware ADS-B
Sat 12:43:26 PM 34.0210 -117.8282 265° West 209 241 7,900 -581 Descending FlightAware ADS-B
Sat 12:43:42 PM 34.0197 -117.8485 266° West 207 238 7,700 -706 Descending FlightAware ADS-B
Sat 12:43:43 PM 34.0198 -117.8459 266° West 208 239 7,700 -1,286 Level FlightAware ADS-B
Sat 12:43:56 PM 34.0187 -117.8657 266° West 204 235 7,400 -857 Descending FlightAware ADS-B
Sat 12:44:04 PM 34.0181 -117.8736 266° West 204 235 7,400 -800 Level FlightAware ADS-B
Sat 12:44:11 PM 34.0176 -117.8825 266° West 201 231 7,200 -1,091 Descending FlightAware ADS-B
Sat 12:44:26 PM 34.0167 -117.8947 265° West 199 229 7,000 -960 Descending FlightAware ADS-B
Sat 12:44:36 PM 34.0159 -117.9071 265° West 196 226 6,800 -1,250 Descending FlightAware ADS-B
Sat 12:44:50 PM 34.0142 -117.9249 264° West 196 226 6,500 -1,667 Descending FlightAware ADS-B
Sat 12:44:54 PM 34.0142 -117.9261 263° West 198 228 6,300 -1,500 Descending FlightAware ADS-B
Sat 12:45:06 PM 34.0124 -117.9423 263° West 198 228 6,100 -947 Descending FlightAware ADS-B
Sat 12:45:13 PM 34.0118 -117.9491 262° West 200 230 6,000 -1,200 Descending FlightAware ADS-B
Sat 12:45:21 PM 34.0109 -117.9558 262° West 199 229 5,800 -1,043 Descending FlightAware ADS-B
Sat 12:45:36 PM 34.0087 -117.9744 263° West 197 227 5,600 -800 Descending FlightAware ADS-B
Sat 12:45:51 PM 34.0073 -117.9873 263° West 194 223 5,400 -686 Descending FlightAware ADS-B
Sat 12:46:11 PM 34.0052 -118.0066 264° West 190 219 5,200 -571 Descending FlightAware ADS-B
Sat 12:46:12 PM 34.0054 -118.0056 263° West 191 220 5,200 -750 Level FlightAware ADS-B
Sat 12:46:27 PM 34.0032 -118.0284 264° West 188 216 5,000 -632 Descending FlightAware ADS-B
Sat 12:46:31 PM 34.0028 -118.0332 263° West 186 214 5,000  Level FlightAware ADS-B
Sat 12:46:47 PM 34.0011 -118.0493 264° West 182 209 5,000  Level FlightAware ADS-B
Sat 12:47:02 PM 33.9997 -118.0636 264° West 183 211 5,000  Level FlightAware ADS-B
Sat 12:47:11 PM 33.9987 -118.0739 263° West 190 219 5,000 -250 Level FlightAware ADS-B
Sat 12:47:26 PM 33.9972 -118.0901 264° West 198 228 4,900 -667 Descending FlightAware ADS-B
Sat 12:47:29 PM 33.9975 -118.0855 264° West 198 228 4,800 -1,200 Descending FlightAware ADS-B
Sat 12:47:41 PM 33.9956 -118.1067 264° West 194 223 4,600 -889 Descending FlightAware ADS-B
Sat 12:47:56 PM 33.9941 -118.1216 264° West 187 215 4,400 -522 Descending FlightAware ADS-B
Sat 12:48:04 PM 33.9934 -118.1289 264° West 186 214 4,400 -800 Level FlightAware ADS-B
Sat 12:48:11 PM 33.9926 -118.1374 264° West 184 212 4,200 -1,091 Descending FlightAware ADS-B
Sat 12:48:26 PM 33.9912 -118.1531 264° West 192 221 4,000 -1,200 Descending FlightAware ADS-B
Sat 12:49:11 PM 33.9857 -118.2053 263° West 217 250 3,000 -1,080 Descending FlightAware ADS-B
Sat 12:49:16 PM 33.9853 -118.2089 263° West 218 251 3,100 -1,125 Climbing FlightAware ADS-B
Sat 12:49:27 PM 33.9838 -118.2239 264° West 218 251 2,700 -1,556 Descending FlightAware ADS-B
Sat 12:49:43 PM 33.9819 -118.2444 264° West 207 238 2,400 -1,000 Descending FlightAware ADS-B
Sat 12:49:57 PM 33.9804 -118.2590 264° West 201 231 2,200 -913 Descending FlightAware ADS-B
Sat 12:50:29 PM 33.9463 -118.2923 263° West 194 223 1,700 -732 Descending FlightAware ADS-B
Sat 12:52:41 PM 33.9372 -118.3843 263° West 104 120 200 -682 Descending FlightAware ADS-B

Login

Don't have an account? Register now (free) for customized features, flight alerts, and more!